createdAt,value
2016-02-02T00:06:11.531Z,21.62
2016-02-02T00:07:11.549Z,21.61
2016-02-02T00:08:11.552Z,21.65
2016-02-02T00:09:11.554Z,21.61
2016-02-02T00:10:11.557Z,21.61
2016-02-02T00:11:11.563Z,21.64
2016-02-02T00:12:11.565Z,21.56
2016-02-02T00:13:11.568Z,21.65
2016-02-02T00:14:11.586Z,21.58
2016-02-02T00:15:11.606Z,21.64
2016-02-02T00:16:11.593Z,21.65
2016-02-02T00:17:11.596Z,21.54
2016-02-02T00:18:11.599Z,21.64
2016-02-02T00:19:11.617Z,21.61
2016-02-02T00:20:11.620Z,21.58
2016-02-02T00:21:11.625Z,21.56
2016-02-02T00:22:11.628Z,21.52
2016-02-02T00:23:11.633Z,21.54
2016-02-02T00:24:11.636Z,21.53
2016-02-02T00:25:11.654Z,21.53
2016-02-02T00:26:11.642Z,21.5
2016-02-02T00:27:11.644Z,21.53
2016-02-02T00:28:11.664Z,21.5
2016-02-02T00:29:11.683Z,21.52
2016-02-02T00:30:44.360Z,21.53
2016-02-02T00:31:11.673Z,21.52
2016-02-02T00:32:11.692Z,21.56
2016-02-02T00:33:11.710Z,21.54
2016-02-02T00:34:11.699Z,21.5
2016-02-02T00:35:11.701Z,21.52
2016-02-02T00:36:11.704Z,21.56
2016-02-02T00:37:11.723Z,21.56
2016-02-02T00:38:11.711Z,21.56
2016-02-02T00:39:11.728Z,21.5
2016-02-02T00:40:11.730Z,21.5
2016-02-02T00:41:11.733Z,21.56
2016-02-02T00:42:11.738Z,21.49
2016-02-02T00:43:11.756Z,21.61
2016-02-02T00:44:11.774Z,21.5
2016-02-02T00:45:11.762Z,21.5
2016-02-02T00:46:11.780Z,21.5
2016-02-02T00:47:11.783Z,21.42
2016-02-02T00:48:11.771Z,21.46
2016-02-02T00:49:11.821Z,21.43
2016-02-02T00:50:11.792Z,21.5
2016-02-02T00:51:11.794Z,21.44
2016-02-02T00:52:11.813Z,21.43
2016-02-02T00:53:11.801Z,21.47
2016-02-02T00:54:11.820Z,21.4
2016-02-02T00:55:11.822Z,21.4
2016-02-02T00:56:11.841Z,21.43
2016-02-02T00:57:11.827Z,21.4
2016-02-02T00:58:11.831Z,21.46
2016-02-02T00:59:11.850Z,21.44
2016-02-02T01:00:46.002Z,21.38
2016-02-02T01:01:11.846Z,21.43
2016-02-02T01:02:11.880Z,21.42
2016-02-02T01:03:11.867Z,21.47
2016-02-02T01:04:11.885Z,21.42
2016-02-02T01:05:11.888Z,21.43
2016-02-02T01:06:11.875Z,21.44
2016-02-02T01:07:11.894Z,21.43
2016-02-02T01:08:11.914Z,21.38
2016-02-02T01:09:11.901Z,21.44
2016-02-02T01:10:11.904Z,21.42
2016-02-02T01:11:11.922Z,21.43
2016-02-02T01:12:11.925Z,21.4
2016-02-02T01:13:11.943Z,21.4
2016-02-02T01:14:11.930Z,21.37
2016-02-02T01:15:11.933Z,21.4
2016-02-02T01:16:11.951Z,21.47
2016-02-02T01:17:11.939Z,21.42
2016-02-02T01:18:11.956Z,21.37
2016-02-02T01:19:11.960Z,21.42
2016-02-02T01:20:11.962Z,21.44
2016-02-02T01:21:11.981Z,21.43
2016-02-02T01:22:11.984Z,21.46
2016-02-02T01:23:11.986Z,21.38
2016-02-02T01:24:12.004Z,21.37
2016-02-02T01:25:12.007Z,21.38
2016-02-02T01:26:11.995Z,21.44
2016-02-02T01:27:11.997Z,21.47
2016-02-02T01:28:12.015Z,21.35
2016-02-02T01:29:12.012Z,21.46
2016-02-02T01:33:54.949Z,21.42
2016-02-02T01:34:07.606Z,21.4
2016-02-02T01:35:07.610Z,21.44
2016-02-02T01:36:07.628Z,21.35
2016-02-02T01:37:07.617Z,21.35
2016-02-02T01:38:07.634Z,21.46
2016-02-02T01:39:07.621Z,21.46
2016-02-02T01:40:07.641Z,21.42
2016-02-02T01:41:07.644Z,21.38
2016-02-02T01:42:07.647Z,21.43
2016-02-02T01:43:07.649Z,21.37
2016-02-02T01:44:07.669Z,21.42
2016-02-02T01:45:07.656Z,21.34
2016-02-02T01:46:07.675Z,21.35
2016-02-02T01:47:07.677Z,21.43
2016-02-02T01:48:07.679Z,21.46
2016-02-02T01:49:07.686Z,21.37
2016-02-02T01:50:07.719Z,21.44
2016-02-02T01:51:07.694Z,21.34
2016-02-02T01:52:07.696Z,21.42
2016-02-02T01:53:07.715Z,21.46
2016-02-02T01:54:07.717Z,21.37
2016-02-02T01:55:07.719Z,21.38
2016-02-02T01:56:07.725Z,21.35
2016-02-02T01:57:07.728Z,21.32
2016-02-02T01:58:07.731Z,21.34
2016-02-02T01:59:07.765Z,21.38
2016-02-02T02:00:07.737Z,21.34
2016-02-02T02:01:07.757Z,21.34
2016-02-02T02:02:07.759Z,21.34
2016-02-02T02:03:07.762Z,21.34
2016-02-02T02:04:07.765Z,21.4
2016-02-02T02:05:07.770Z,21.42
2016-02-02T02:06:07.787Z,21.37
2016-02-02T02:07:07.790Z,21.42
2016-02-02T02:08:07.793Z,21.32
2016-02-02T02:09:07.796Z,21.4
2016-02-02T02:10:07.799Z,21.38
2016-02-02T02:11:07.801Z,21.43
2016-02-02T02:12:07.820Z,21.35
2016-02-02T02:13:07.823Z,21.35
2016-02-02T02:14:07.826Z,21.42
2016-02-02T02:15:07.673Z,21.27
2016-02-02T02:16:07.848Z,21.37
2016-02-02T02:17:07.857Z,21.27
2016-02-02T02:18:07.845Z,21.35
2016-02-02T02:19:07.847Z,21.38
2016-02-02T02:20:07.880Z,21.25
2016-02-02T02:21:07.853Z,21.27
2016-02-02T02:22:07.871Z,21.32
2016-02-02T02:23:07.890Z,21.29
2016-02-02T02:24:07.876Z,21.32
2016-02-02T02:25:07.896Z,21.29
2016-02-02T02:26:07.902Z,21.29
2016-02-02T02:27:07.904Z,21.31
2016-02-02T02:28:07.907Z,21.28
2016-02-02T02:29:07.912Z,21.29
2016-02-02T02:34:32.707Z,21.34
2016-02-02T02:35:32.693Z,21.32
2016-02-02T02:36:32.696Z,21.22
2016-02-02T02:37:32.715Z,21.31
2016-02-02T02:38:32.702Z,21.35
2016-02-02T02:39:32.704Z,21.28
2016-02-02T02:40:32.722Z,21.24
2016-02-02T02:41:32.741Z,21.28
2016-02-02T02:42:32.729Z,21.22
2016-02-02T02:43:32.732Z,21.29
2016-02-02T02:44:32.734Z,21.29
2016-02-02T02:45:32.754Z,21.25
2016-02-02T02:46:32.740Z,21.27
2016-02-02T02:47:32.745Z,21.25
2016-02-02T02:48:32.779Z,21.29
2016-02-02T02:49:32.767Z,21.25
2016-02-02T02:50:32.770Z,21.31
2016-02-02T02:51:32.788Z,21.22
2016-02-02T02:52:32.791Z,21.13
2016-02-02T02:53:32.794Z,21.13
2016-02-02T02:54:32.797Z,21.14
2016-02-02T02:55:32.815Z,21.24
2016-02-02T02:56:32.791Z,21.19
2016-02-02T02:57:32.808Z,21.16
2016-02-02T02:58:32.828Z,21.24
2016-02-02T02:59:32.819Z,21.17
2016-02-02T03:03:25.830Z,21.13
2016-02-02T03:04:22.103Z,21.21
2016-02-02T03:05:22.089Z,21.17
2016-02-02T03:06:21.952Z,21.24
2016-02-02T03:07:22.112Z,21.13
2016-02-02T03:08:22.115Z,21.19
2016-02-02T03:09:22.132Z,21.17
2016-02-02T03:10:22.120Z,21.17
2016-02-02T03:11:22.123Z,21.19
2016-02-02T03:12:22.143Z,21.27
2016-02-02T03:13:22.145Z,21.14
2016-02-02T03:14:22.150Z,21.16
2016-02-02T03:15:22.155Z,21.19
2016-02-02T03:16:22.157Z,21.19
2016-02-02T03:17:22.176Z,21.19
2016-02-02T03:18:22.194Z,21.14
2016-02-02T03:19:22.010Z,21.21
2016-02-02T03:20:22.185Z,21.28
2016-02-02T03:21:22.203Z,21.24
2016-02-02T03:22:22.190Z,21.16
2016-02-02T03:23:22.209Z,21.19
2016-02-02T03:24:22.200Z,21.25
2016-02-02T03:25:22.203Z,21.22
2016-02-02T03:26:22.221Z,21.16
2016-02-02T03:27:22.209Z,21.24
2016-02-02T03:28:22.228Z,21.19
2016-02-02T03:29:22.217Z,21.12
2016-02-02T03:34:14.147Z,21.21
2016-02-02T03:34:26.788Z,21.13
2016-02-02T03:35:26.791Z,21.24
2016-02-02T03:36:26.809Z,21.17
2016-02-02T03:37:26.827Z,21.21
2016-02-02T03:38:26.816Z,21.16
2016-02-02T03:39:26.819Z,21.17
2016-02-02T03:40:26.821Z,21.24
2016-02-02T03:41:26.838Z,21.17
2016-02-02T03:42:26.826Z,21.12
2016-02-02T03:43:26.828Z,21.14
2016-02-02T03:44:26.850Z,21.17
2016-02-02T03:45:26.826Z,21.16
2016-02-02T03:46:26.817Z,21.16
2016-02-02T03:47:26.809Z,21.14
2016-02-02T03:48:26.802Z,21.17
2016-02-02T03:49:26.817Z,21.17
2016-02-02T03:50:26.802Z,21.12
2016-02-02T03:51:26.817Z,21.19
2016-02-02T03:52:26.816Z,21.22
2016-02-02T03:53:26.815Z,21.14
2016-02-02T03:54:26.832Z,21.09
2016-02-02T03:55:26.818Z,21.17
2016-02-02T03:56:26.834Z,21.17
2016-02-02T03:57:26.820Z,21.17
2016-02-02T03:58:26.837Z,21.12
2016-02-02T03:59:26.872Z,21.16
2016-02-02T04:02:02.408Z,21.17
2016-02-02T04:03:02.411Z,21.13
2016-02-02T04:04:02.385Z,21.13
2016-02-02T04:05:02.404Z,21.1
2016-02-02T04:06:02.407Z,21.09
2016-02-02T04:07:02.442Z,21.06
2016-02-02T04:08:02.429Z,21.1
2016-02-02T04:09:02.432Z,21.12
2016-02-02T04:10:02.418Z,21.06
2016-02-02T04:11:02.438Z,21.03
2016-02-02T04:12:02.441Z,21.1
2016-02-02T04:13:02.443Z,21.04
2016-02-02T04:14:02.461Z,21.06
2016-02-02T04:15:02.449Z,21.13
2016-02-02T04:16:02.453Z,21.09
2016-02-02T04:17:02.467Z,21.09
2016-02-02T04:18:02.486Z,21.06
2016-02-02T04:19:02.473Z,21.04
2016-02-02T04:20:02.493Z,21.12
2016-02-02T04:21:02.479Z,21.07
2016-02-02T04:22:02.497Z,21.04
2016-02-02T04:23:02.516Z,21.09
2016-02-02T04:24:02.520Z,21.04
2016-02-02T04:25:02.507Z,21.06
2016-02-02T04:26:02.525Z,21.12
2016-02-02T04:27:02.513Z,21.09
2016-02-02T04:28:02.516Z,21.1
2016-02-02T04:29:02.535Z,21.06
2016-02-02T04:35:41.052Z,21.07
2016-02-02T04:36:41.055Z,21.1
2016-02-02T04:37:41.058Z,21.06
2016-02-02T04:38:41.077Z,21.04
2016-02-02T04:39:41.063Z,21.04
2016-02-02T04:40:41.082Z,21.12
2016-02-02T04:41:41.085Z,21.07
2016-02-02T04:42:41.073Z,21.04
2016-02-02T04:43:41.091Z,21.06
2016-02-02T04:44:41.110Z,21.07
2016-02-02T04:45:41.144Z,21.09
2016-02-02T04:46:41.099Z,21.07
2016-02-02T04:47:41.118Z,21.12
2016-02-02T04:48:41.120Z,21.06
2016-02-02T04:49:41.124Z,21.12
2016-02-02T04:50:41.126Z,21.07
2016-02-02T04:51:41.144Z,21.07
2016-02-02T04:52:41.133Z,21.07
2016-02-02T04:53:41.135Z,21.06
2016-02-02T04:54:41.153Z,21.04
2016-02-02T04:55:41.155Z,21.09
2016-02-02T04:56:41.158Z,21.12
2016-02-02T04:57:41.178Z,21.1
2016-02-02T04:58:41.181Z,21.06
2016-02-02T04:59:41.183Z,21.07
2016-02-02T05:03:50.665Z,21.07
2016-02-02T05:04:30.432Z,21.12
2016-02-02T05:05:30.436Z,21.09
2016-02-02T05:06:30.454Z,21.06
2016-02-02T05:07:30.473Z,21.07
2016-02-02T05:08:30.476Z,21.12
2016-02-02T05:09:30.464Z,21.03
2016-02-02T05:10:30.481Z,21.01
2016-02-02T05:11:30.503Z,21.01
2016-02-02T05:12:30.490Z,21.1
2016-02-02T05:13:30.492Z,21.03
2016-02-02T05:14:30.531Z,21.04
2016-02-02T05:15:30.501Z,21.09
2016-02-02T05:16:30.504Z,21.03
2016-02-02T05:17:30.523Z,21.01
2016-02-02T05:18:30.526Z,21.04
2016-02-02T05:19:30.528Z,20.99
2016-02-02T05:20:30.530Z,21.03
2016-02-02T05:21:30.549Z,21.07
2016-02-02T05:22:30.537Z,21.07
2016-02-02T05:23:30.540Z,21.09
2016-02-02T05:24:30.542Z,21.04
2016-02-02T05:25:30.560Z,21.09
2016-02-02T05:26:30.579Z,21.01
2016-02-02T05:27:30.582Z,21.01
2016-02-02T05:28:30.585Z,21.06
2016-02-02T05:29:30.574Z,21.06
2016-02-02T05:32:37.430Z,21.01
2016-02-02T05:33:37.448Z,20.98
2016-02-02T05:34:37.420Z,21.03
2016-02-02T05:35:37.422Z,20.98
2016-02-02T05:36:37.441Z,21.01
2016-02-02T05:37:37.444Z,21.01
2016-02-02T05:38:37.478Z,20.99
2016-02-02T05:39:37.462Z,20.99
2016-02-02T05:40:37.465Z,21.01
2016-02-02T05:41:37.467Z,21.03
2016-02-02T05:42:37.485Z,20.99
2016-02-02T05:43:37.473Z,21.01
2016-02-02T05:44:37.495Z,21.03
2016-02-02T05:45:37.514Z,21.01
2016-02-02T05:46:37.485Z,21.07
2016-02-02T05:47:37.488Z,21.07
2016-02-02T05:48:37.506Z,21.04
2016-02-02T05:49:37.493Z,21.06
2016-02-02T05:50:37.512Z,21.01
2016-02-02T05:51:37.530Z,21.07
2016-02-02T05:52:37.517Z,20.97
2016-02-02T05:53:37.537Z,20.99
2016-02-02T05:54:37.540Z,21.01
2016-02-02T05:55:37.526Z,21.06
2016-02-02T05:56:37.561Z,21.03
2016-02-02T05:57:37.547Z,20.97
2016-02-02T05:58:37.566Z,20.97
2016-02-02T05:59:37.569Z,20.99
2016-02-02T06:05:13.427Z,20.98
2016-02-02T06:06:13.414Z,21.04
2016-02-02T06:07:13.465Z,21.04
2016-02-02T06:08:13.467Z,21.01
2016-02-02T06:09:13.438Z,21.04
2016-02-02T06:10:13.457Z,21.04
2016-02-02T06:11:13.460Z,21.01
2016-02-02T06:12:13.479Z,20.99
2016-02-02T06:13:13.465Z,20.98
2016-02-02T06:14:13.484Z,21.04
2016-02-02T06:15:13.474Z,21.07
2016-02-02T06:16:13.491Z,20.99
2016-02-02T06:17:13.479Z,21.06
2016-02-02T06:18:13.482Z,21.06
2016-02-02T06:19:13.501Z,20.98
2016-02-02T06:20:13.505Z,21.01
2016-02-02T06:21:13.507Z,20.97
2016-02-02T06:22:13.526Z,21.03
2016-02-02T06:23:13.529Z,21.04
2016-02-02T06:24:13.516Z,21.03
2016-02-02T06:25:13.535Z,20.97
2016-02-02T06:26:13.525Z,21.06
2016-02-02T06:27:13.544Z,21.04
2016-02-02T06:28:13.547Z,21.01
2016-02-02T06:29:13.549Z,21.01
2016-02-02T06:30:53.874Z,20.99
2016-02-02T06:31:13.564Z,21.12
2016-02-02T06:32:13.583Z,20.97
2016-02-02T06:33:13.554Z,21.03
2016-02-02T06:34:13.573Z,21.01
2016-02-02T06:35:13.590Z,20.98
2016-02-02T06:36:13.610Z,20.97
2016-02-02T06:37:13.597Z,21.06
2016-02-02T06:38:13.585Z,21.01
2016-02-02T06:39:13.602Z,21.06
2016-02-02T06:40:13.605Z,20.99
2016-02-02T06:41:13.608Z,21.04
2016-02-02T06:42:13.610Z,20.97
2016-02-02T06:43:13.629Z,20.98
2016-02-02T06:44:13.632Z,20.99
2016-02-02T06:45:13.635Z,20.99
2016-02-02T06:46:13.637Z,20.99
2016-02-02T06:47:13.640Z,20.99
2016-02-02T06:48:13.642Z,21.07
2016-02-02T06:49:13.646Z,21.03
2016-02-02T06:50:13.695Z,21.07
2016-02-02T06:51:13.681Z,20.99
2016-02-02T06:52:13.669Z,20.99
2016-02-02T06:53:13.689Z,21.03
2016-02-02T06:54:13.691Z,21.06
2016-02-02T06:55:13.693Z,21.09
2016-02-02T06:56:13.696Z,20.99
2016-02-02T06:57:13.716Z,21.01
2016-02-02T06:58:13.720Z,21.06
2016-02-02T06:59:13.706Z,21.01
2016-02-02T07:05:41.116Z,20.99
2016-02-02T07:06:41.119Z,21.06
2016-02-02T07:07:41.122Z,21.12
2016-02-02T07:08:41.140Z,21.06
2016-02-02T07:09:41.160Z,21.03
2016-02-02T07:10:41.146Z,21.01
2016-02-02T07:11:41.134Z,21.03
2016-02-02T07:12:41.167Z,21.04
2016-02-02T07:13:41.175Z,21.1
2016-02-02T07:14:41.162Z,21.12
2016-02-02T07:15:41.164Z,21.03
2016-02-02T07:16:41.198Z,21.14
2016-02-02T07:17:41.186Z,21.04
2016-02-02T07:18:41.205Z,21.12
2016-02-02T07:19:41.207Z,21.07
2016-02-02T07:20:41.195Z,21.06
2016-02-02T07:21:41.202Z,21.1
2016-02-02T07:22:41.206Z,21.06
2016-02-02T07:23:41.223Z,21.06
2016-02-02T07:24:41.226Z,21.1
2016-02-02T07:25:41.213Z,21.1
2016-02-02T07:26:41.246Z,21.14
2016-02-02T07:27:41.246Z,21.13
2016-02-02T07:28:41.249Z,21.24
2016-02-02T07:29:41.253Z,21.28
2016-02-02T07:31:52.899Z,21.24
2016-02-02T07:32:05.827Z,21.27
2016-02-02T07:33:10.480Z,21.35
2016-02-02T07:34:12.999Z,21.43
2016-02-02T07:35:05.837Z,21.42
2016-02-02T07:36:05.618Z,21.32
2016-02-02T07:37:07.061Z,21.54
2016-02-02T07:38:05.639Z,21.52
2016-02-02T07:39:05.658Z,21.56
2016-02-02T07:40:05.667Z,21.54
2016-02-02T07:41:05.639Z,21.62
2016-02-02T07:42:05.673Z,21.59
2016-02-02T07:43:05.660Z,21.68
2016-02-02T07:44:05.663Z,21.65
2016-02-02T07:45:05.666Z,21.71
2016-02-02T07:46:05.699Z,21.67
2016-02-02T07:47:05.671Z,21.74
2016-02-02T07:48:05.691Z,21.77
2016-02-02T07:49:05.694Z,21.75
2016-02-02T07:50:05.697Z,21.88
2016-02-02T07:51:05.717Z,21.82
2016-02-02T07:52:05.705Z,21.77
2016-02-02T07:53:05.723Z,21.79
2016-02-02T07:54:05.742Z,21.92
2016-02-02T07:55:05.749Z,21.92
2016-02-02T07:56:05.736Z,21.9
2016-02-02T07:57:05.738Z,21.88
2016-02-02T07:58:05.757Z,22.05
2016-02-02T07:59:05.776Z,22.02
2016-02-02T08:02:03.629Z,22.06
2016-02-02T08:03:03.632Z,22.06
2016-02-02T08:04:03.651Z,22.09
2016-02-02T08:05:03.651Z,22.1
2016-02-02T08:06:03.654Z,22.14
2016-02-02T08:07:03.658Z,22.12
2016-02-02T08:08:03.662Z,22.21
2016-02-02T08:09:03.664Z,22.24
2016-02-02T08:10:03.666Z,22.21
2016-02-02T08:11:03.684Z,22.18
2016-02-02T08:12:03.687Z,22.22
2016-02-02T08:13:03.690Z,22.22
2016-02-02T08:14:03.716Z,22.3
2016-02-02T08:15:03.707Z,22.25
2016-02-02T08:16:03.712Z,22.28
2016-02-02T08:17:03.620Z,22.25
2016-02-02T08:18:03.717Z,22.28
2016-02-02T08:19:03.735Z,22.28
2016-02-02T08:20:03.737Z,22.28
2016-02-02T08:21:03.743Z,22.28
2016-02-02T08:22:03.621Z,22.22
2016-02-02T08:23:03.765Z,22.31
2016-02-02T08:24:03.767Z,22.3
2016-02-02T08:25:03.770Z,22.35
2016-02-02T08:26:03.805Z,22.43
2016-02-02T08:27:03.776Z,22.39
2016-02-02T08:28:03.797Z,22.24
2016-02-02T08:29:03.800Z,22.37
2016-02-02T08:31:09.308Z,22.39
2016-02-02T08:31:21.968Z,22.39
2016-02-02T08:32:21.985Z,22.37
2016-02-02T08:33:21.816Z,22.43
2016-02-02T08:34:21.991Z,22.42
2016-02-02T08:35:21.994Z,22.43
2016-02-02T08:36:21.996Z,22.35
2016-02-02T08:37:21.999Z,22.4
2016-02-02T08:38:22.018Z,22.42
2016-02-02T08:39:22.021Z,22.39
2016-02-02T08:40:22.023Z,22.31
2016-02-02T08:41:22.042Z,22.39
2016-02-02T08:42:22.046Z,22.42
2016-02-02T08:43:22.048Z,22.43
2016-02-02T08:44:22.066Z,22.47
2016-02-02T08:45:22.069Z,22.46
2016-02-02T08:46:22.056Z,22.52
2016-02-02T08:47:22.077Z,22.49
2016-02-02T08:48:22.096Z,22.47
2016-02-02T08:49:22.098Z,22.46
2016-02-02T08:50:22.085Z,22.46
2016-02-02T08:51:22.121Z,22.43
2016-02-02T08:52:22.109Z,22.46
2016-02-02T08:53:22.111Z,22.43
2016-02-02T08:54:22.128Z,22.49
2016-02-02T08:55:22.148Z,22.52
2016-02-02T08:56:22.138Z,22.46
2016-02-02T08:57:22.157Z,22.46
2016-02-02T08:58:22.150Z,22.45
2016-02-02T08:59:22.153Z,22.49
2016-02-02T09:04:46.776Z,22.47
2016-02-02T09:05:46.952Z,22.57
2016-02-02T09:06:46.954Z,22.54
2016-02-02T09:07:46.961Z,22.45
2016-02-02T09:08:46.979Z,22.46
2016-02-02T09:09:46.966Z,22.45
2016-02-02T09:10:46.969Z,22.51
2016-02-02T09:11:46.972Z,22.49
2016-02-02T09:12:47.007Z,22.61
2016-02-02T09:13:46.996Z,22.57
2016-02-02T09:14:47.030Z,22.55
2016-02-02T09:15:47.016Z,22.57
2016-02-02T09:16:47.019Z,22.47
2016-02-02T09:17:47.023Z,22.47
2016-02-02T09:18:47.041Z,22.52
2016-02-02T09:19:47.050Z,22.52
2016-02-02T09:20:47.053Z,22.52
2016-02-02T09:21:47.070Z,22.51
2016-02-02T09:22:47.058Z,22.46
2016-02-02T09:23:47.075Z,22.51
2016-02-02T09:24:47.095Z,22.6
2016-02-02T09:25:47.081Z,22.58
2016-02-02T09:26:47.100Z,22.57
2016-02-02T09:27:47.106Z,22.61
2016-02-02T09:28:47.108Z,22.57
2016-02-02T09:29:47.111Z,22.52
2016-02-02T09:32:25.166Z,22.57
2016-02-02T09:33:25.199Z,22.61
2016-02-02T09:34:25.188Z,22.55
2016-02-02T09:35:25.206Z,22.52
2016-02-02T09:36:25.209Z,22.55
2016-02-02T09:37:25.197Z,22.54
2016-02-02T09:38:25.215Z,22.6
2016-02-02T09:39:25.218Z,22.6
2016-02-02T09:40:25.220Z,22.62
2016-02-02T09:41:25.239Z,22.57
2016-02-02T09:42:25.242Z,22.61
2016-02-02T09:43:25.245Z,22.58
2016-02-02T09:44:25.247Z,22.67
2016-02-02T09:45:25.250Z,22.7
2016-02-02T09:46:25.268Z,22.65
2016-02-02T09:47:25.270Z,22.65
2016-02-02T09:48:25.273Z,22.64
2016-02-02T09:49:25.291Z,22.58
2016-02-02T09:50:25.313Z,22.7
2016-02-02T09:51:25.299Z,22.64
2016-02-02T09:52:25.318Z,22.68
2016-02-02T09:53:25.320Z,22.57
2016-02-02T09:54:25.338Z,22.68
2016-02-02T09:55:25.326Z,22.58
2016-02-02T09:56:25.365Z,22.6
2016-02-02T09:57:25.335Z,22.73
2016-02-02T09:58:25.353Z,22.72
2016-02-02T09:59:25.373Z,22.76
2016-02-02T10:02:00.913Z,22.64
2016-02-02T10:03:00.900Z,22.73
2016-02-02T10:04:00.951Z,22.77
2016-02-02T10:05:00.906Z,22.68
2016-02-02T10:06:00.940Z,22.7
2016-02-02T10:07:00.942Z,22.76
2016-02-02T10:08:00.945Z,22.72
2016-02-02T10:09:00.949Z,22.68
2016-02-02T10:10:00.952Z,22.7
2016-02-02T10:11:00.954Z,22.73
2016-02-02T10:12:00.989Z,22.7
2016-02-02T10:13:00.975Z,22.7
2016-02-02T10:14:00.979Z,22.68
2016-02-02T10:15:01.012Z,22.64
2016-02-02T10:16:01.014Z,22.67
2016-02-02T10:17:01.002Z,22.72
2016-02-02T10:18:01.036Z,22.68
2016-02-02T10:19:01.039Z,22.73
2016-02-02T10:20:01.041Z,22.73
2016-02-02T10:21:01.044Z,22.7
2016-02-02T10:22:01.046Z,22.72
2016-02-02T10:23:01.049Z,22.7
2016-02-02T10:24:01.083Z,22.73
2016-02-02T10:25:01.071Z,22.7
2016-02-02T10:26:01.073Z,22.72
2016-02-02T10:27:01.079Z,22.73
2016-02-02T10:28:01.082Z,22.62
2016-02-02T10:29:01.132Z,22.73
2016-02-02T10:30:21.356Z,22.82
2016-02-02T10:31:01.122Z,22.8
2016-02-02T10:32:01.109Z,22.76
2016-02-02T10:33:01.115Z,22.72
2016-02-02T10:34:01.148Z,22.79
2016-02-02T10:35:01.131Z,22.79
2016-02-02T10:36:01.134Z,22.8
2016-02-02T10:37:01.168Z,22.83
2016-02-02T10:38:01.171Z,22.76
2016-02-02T10:39:01.189Z,22.79
2016-02-02T10:40:01.162Z,22.79
2016-02-02T10:41:01.180Z,22.77
2016-02-02T10:42:01.183Z,22.8
2016-02-02T10:43:01.216Z,22.86
2016-02-02T10:44:01.204Z,22.85
2016-02-02T10:45:01.207Z,22.79
2016-02-02T10:46:01.210Z,22.82
2016-02-02T10:47:01.213Z,22.85
2016-02-02T10:48:01.246Z,22.82
2016-02-02T10:49:01.233Z,22.88
2016-02-02T10:50:01.253Z,22.83
2016-02-02T10:51:01.255Z,22.85
2016-02-02T10:52:01.257Z,22.88
2016-02-02T10:53:01.291Z,22.8
2016-02-02T10:54:01.263Z,22.82
2016-02-02T10:55:01.297Z,22.8
2016-02-02T10:56:01.283Z,22.82
2016-02-02T10:57:01.306Z,22.8
2016-02-02T10:58:01.295Z,22.79
2016-02-02T10:59:01.314Z,22.9
2016-02-02T11:04:42.111Z,22.83
2016-02-02T11:05:42.113Z,22.85
2016-02-02T11:06:42.132Z,22.9
2016-02-02T11:07:42.134Z,22.91
2016-02-02T11:08:42.169Z,22.9
2016-02-02T11:09:42.155Z,22.79
2016-02-02T11:10:41.991Z,22.85
2016-02-02T11:11:42.150Z,22.88
2016-02-02T11:12:42.184Z,22.83
2016-02-02T11:13:42.171Z,22.83
2016-02-02T11:14:42.175Z,22.85
2016-02-02T11:15:42.193Z,22.88
2016-02-02T11:16:42.195Z,22.97
2016-02-02T11:17:42.200Z,22.85
2016-02-02T11:18:42.202Z,22.88
2016-02-02T11:19:42.236Z,22.82
2016-02-02T11:20:42.223Z,22.91
2016-02-02T11:21:42.228Z,22.92
2016-02-02T11:22:42.231Z,22.95
2016-02-02T11:23:42.250Z,22.92
2016-02-02T11:24:42.252Z,22.92
2016-02-02T11:25:42.271Z,22.94
2016-02-02T11:26:42.275Z,22.8
2016-02-02T11:27:42.285Z,22.88
2016-02-02T11:28:42.302Z,22.88
2016-02-02T11:29:42.273Z,22.88
2016-02-02T11:32:28.891Z,22.8
2016-02-02T11:33:28.926Z,22.8
2016-02-02T11:34:28.914Z,22.9
2016-02-02T11:35:28.931Z,22.8
2016-02-02T11:36:28.920Z,22.9
2016-02-02T11:37:28.937Z,22.9
2016-02-02T11:38:28.939Z,22.94
2016-02-02T11:39:28.942Z,22.8
2016-02-02T11:40:28.963Z,22.9
2016-02-02T11:41:28.966Z,22.83
2016-02-02T11:42:28.985Z,22.91
2016-02-02T11:43:28.971Z,22.86
2016-02-02T11:44:28.990Z,22.86
2016-02-02T11:45:29.012Z,22.83
2016-02-02T11:46:28.999Z,22.83
2016-02-02T11:47:29.018Z,22.8
2016-02-02T11:48:29.006Z,22.82
2016-02-02T11:49:29.040Z,22.85
2016-02-02T11:50:29.042Z,22.85
2016-02-02T11:51:29.029Z,22.82
2016-02-02T11:52:29.031Z,22.86
2016-02-02T11:53:29.051Z,22.91
2016-02-02T11:54:29.053Z,22.88
2016-02-02T11:55:29.070Z,22.79
2016-02-02T11:56:29.073Z,22.85
2016-02-02T11:57:29.092Z,22.85
2016-02-02T11:58:29.097Z,22.83
2016-02-02T11:59:29.101Z,22.79
2016-02-02T12:05:38.542Z,22.92
2016-02-02T12:06:38.530Z,22.92
2016-02-02T12:07:38.549Z,22.82
2016-02-02T12:08:38.567Z,22.86
2016-02-02T12:09:38.569Z,22.83
2016-02-02T12:10:38.572Z,22.82
2016-02-02T12:11:38.576Z,22.88
2016-02-02T12:12:38.578Z,22.83
2016-02-02T12:13:38.628Z,22.86
2016-02-02T12:14:38.599Z,22.85
2016-02-02T12:15:38.602Z,22.9
2016-02-02T12:16:38.606Z,22.91
2016-02-02T12:17:38.639Z,22.9
2016-02-02T12:18:38.627Z,22.8
2016-02-02T12:19:38.488Z,22.8
2016-02-02T12:20:38.693Z,22.8
2016-02-02T12:21:38.635Z,22.82
2016-02-02T12:22:38.683Z,22.82
2016-02-02T12:23:38.656Z,22.83
2016-02-02T12:24:38.689Z,22.82
2016-02-02T12:25:38.708Z,22.8
2016-02-02T12:26:38.680Z,22.75
2016-02-02T12:27:38.698Z,22.8
2016-02-02T12:28:38.700Z,22.82
2016-02-02T12:29:38.715Z,22.79
2016-02-02T12:30:58.936Z,22.83
2016-02-02T12:31:38.736Z,22.79
2016-02-02T12:32:38.566Z,22.82
2016-02-02T12:33:38.724Z,22.82
2016-02-02T12:34:38.728Z,22.9
2016-02-02T12:35:38.762Z,22.85
2016-02-02T12:36:38.749Z,22.77
2016-02-02T12:37:38.766Z,22.85
2016-02-02T12:38:38.801Z,22.77
2016-02-02T12:39:38.819Z,22.83
2016-02-02T12:40:38.791Z,22.8
2016-02-02T12:41:38.796Z,22.79
2016-02-02T12:42:38.814Z,22.8
2016-02-02T12:43:38.800Z,22.8
2016-02-02T12:44:38.820Z,22.83
2016-02-02T12:45:38.837Z,22.8
2016-02-02T12:46:38.825Z,22.83
2016-02-02T12:47:38.827Z,22.76
2016-02-02T12:48:38.845Z,22.77
2016-02-02T12:49:38.841Z,22.77
2016-02-02T12:50:38.848Z,22.79
2016-02-02T12:51:38.841Z,22.85
2016-02-02T12:52:38.817Z,22.82
2016-02-02T12:53:38.857Z,22.79
2016-02-02T12:54:38.823Z,22.79
2016-02-02T12:55:38.837Z,22.8
2016-02-02T12:56:38.851Z,22.82
2016-02-02T12:57:38.850Z,22.86
2016-02-02T12:58:38.834Z,22.83
2016-02-02T12:59:38.850Z,22.83
2016-02-02T13:00:38.888Z,22.8
2016-02-02T13:01:38.859Z,22.8
2016-02-02T13:02:38.860Z,22.82
2016-02-02T13:03:38.893Z,22.82
2016-02-02T13:04:38.881Z,22.85
2016-02-02T13:05:38.883Z,22.82
2016-02-02T13:06:38.900Z,22.82
2016-02-02T13:07:38.934Z,22.83
2016-02-02T13:08:38.905Z,22.82
2016-02-02T13:09:38.907Z,22.82
2016-02-02T13:10:38.910Z,22.85
2016-02-02T13:11:38.943Z,22.91
2016-02-02T13:12:38.934Z,22.91
2016-02-02T13:13:38.936Z,22.92
2016-02-02T13:14:38.986Z,22.85
2016-02-02T13:15:38.957Z,22.9
2016-02-02T13:16:38.960Z,22.85
2016-02-02T13:17:38.963Z,22.88
2016-02-02T13:18:38.981Z,22.9
2016-02-02T13:19:38.988Z,22.76
2016-02-02T13:20:39.007Z,22.82
2016-02-02T13:21:39.009Z,22.82
2016-02-02T13:22:38.996Z,22.79
2016-02-02T13:23:39.014Z,22.83
2016-02-02T13:24:39.019Z,22.83
2016-02-02T13:25:39.038Z,22.86
2016-02-02T13:26:39.025Z,22.79
2016-02-02T13:27:39.044Z,22.86
2016-02-02T13:28:39.062Z,22.86
2016-02-02T13:29:39.051Z,22.82
2016-02-02T13:30:59.287Z,22.85
2016-02-02T13:31:39.088Z,22.83
2016-02-02T13:32:39.076Z,22.83
2016-02-02T13:33:39.078Z,22.88
2016-02-02T13:34:39.129Z,22.83
2016-02-02T13:35:39.099Z,22.8
2016-02-02T13:36:39.118Z,22.88
2016-02-02T13:37:39.104Z,22.85
2016-02-02T13:38:39.124Z,22.91
2016-02-02T13:39:39.158Z,22.9
2016-02-02T13:40:39.144Z,22.88
2016-02-02T13:41:39.147Z,22.86
2016-02-02T13:42:39.165Z,22.88
2016-02-02T13:43:39.153Z,22.88
2016-02-02T13:44:39.156Z,22.94
2016-02-02T13:45:39.191Z,22.94
2016-02-02T13:46:39.177Z,22.86
2016-02-02T13:47:39.180Z,22.8
2016-02-02T13:48:39.183Z,22.86
2016-02-02T13:49:39.201Z,22.92
2016-02-02T13:50:39.207Z,22.9
2016-02-02T13:51:39.225Z,22.86
2016-02-02T13:52:39.212Z,22.88
2016-02-02T13:53:39.230Z,22.92
2016-02-02T13:54:39.234Z,22.94
2016-02-02T13:55:39.252Z,22.94
2016-02-02T13:56:39.256Z,22.91
2016-02-02T13:57:39.320Z,22.94
2016-02-02T13:58:39.110Z,22.92